Who's Online

We have 2 guests online

Aviation WX

[source: ADDS]
METAR
KIAD 270352Z 36004KT 10SM BKN090 10/03 A2974 RMK AO2 SLP070 T01000033 =
TAF
KIAD 262331Z 2700/2806 36006KT P6SM SCT060 FM271200 32010KT P6SM SCT060 FM271400 31012G22KT P6SM BKN060 FM272300 31012KT P6SM BKN050 =
SR / SS: 00:01 / 13:38 UTC (Washington-Dulles 2015-04-26)

JoomlaWatch Agent

Home Products and Services

This section describes Multilink Systems products and services

 

 

Under construction Please Standby